createdAt,value
2018-06-16T00:01:32.159Z,88.60
2018-06-16T00:04:29.311Z,89.30
2018-06-16T00:07:26.563Z,89.80
2018-06-16T00:10:24.316Z,90.00
2018-06-16T00:13:22.435Z,89.90
2018-06-16T00:16:20.442Z,90.00
2018-06-16T00:19:17.883Z,90.20
2018-06-16T00:22:15.960Z,90.40
2018-06-16T00:25:13.104Z,90.20
2018-06-16T00:28:10.265Z,90.20
2018-06-16T00:31:08.276Z,89.90
2018-06-16T00:34:06.349Z,89.60
2018-06-16T00:37:03.561Z,89.50
2018-06-16T00:40:01.573Z,89.70
2018-06-16T00:42:59.419Z,89.80
2018-06-16T00:45:57.546Z,90.00
2018-06-16T00:48:55.466Z,90.00
2018-06-16T00:51:53.417Z,90.10
2018-06-16T00:54:51.470Z,90.20
2018-06-16T00:57:57.470Z,90.30
2018-06-16T01:00:55.463Z,90.40
2018-06-16T01:03:53.516Z,90.30
2018-06-16T01:06:51.458Z,90.20
2018-06-16T01:09:49.584Z,90.20
2018-06-16T01:12:47.505Z,90.30
2018-06-16T01:15:45.511Z,90.50
2018-06-16T01:18:43.439Z,90.70
2018-06-16T01:21:41.453Z,90.70
2018-06-16T01:24:39.417Z,90.90
2018-06-16T01:27:37.542Z,91.00
2018-06-16T01:30:35.554Z,91.10
2018-06-16T01:33:32.827Z,91.30
2018-06-16T01:36:29.954Z,91.30
2018-06-16T01:39:32.057Z,91.40
2018-06-16T01:42:30.091Z,91.50
2018-06-16T01:45:27.194Z,91.60
2018-06-16T01:48:25.194Z,91.60
2018-06-16T01:51:22.426Z,91.80
2018-06-16T01:54:20.521Z,91.80
2018-06-16T01:57:17.643Z,91.90
2018-06-16T02:00:15.758Z,92.00
2018-06-16T02:03:13.923Z,92.20
2018-06-16T02:06:11.392Z,92.50
2018-06-16T02:09:09.274Z,92.70
2018-06-16T02:12:06.456Z,92.80
2018-06-16T02:15:04.415Z,92.80
2018-06-16T02:18:01.553Z,92.80
2018-06-16T02:20:58.814Z,93.20
2018-06-16T02:23:56.024Z,92.80
2018-06-16T02:26:53.993Z,92.70
2018-06-16T02:29:52.138Z,92.80
2018-06-16T02:32:50.126Z,93.00
2018-06-16T02:35:49.239Z,93.10
2018-06-16T02:38:47.128Z,93.30
2018-06-16T02:41:45.287Z,93.40
2018-06-16T02:44:43.420Z,93.60
2018-06-16T02:47:41.949Z,93.70
2018-06-16T02:50:39.606Z,93.80
2018-06-16T02:53:37.371Z,93.90
2018-06-16T02:56:35.317Z,94.00
2018-06-16T02:59:32.608Z,94.00
2018-06-16T03:02:29.777Z,94.00
2018-06-16T03:05:27.090Z,94.00
2018-06-16T03:08:24.415Z,94.10
2018-06-16T03:11:21.661Z,94.00
2018-06-16T03:14:19.530Z,93.90
2018-06-16T03:17:16.996Z,94.10
2018-06-16T03:20:15.113Z,94.10
2018-06-16T03:23:13.029Z,94.30
2018-06-16T03:26:11.099Z,94.20
2018-06-16T03:29:09.000Z,94.20
2018-06-16T03:32:07.011Z,94.20
2018-06-16T03:35:05.061Z,94.20
2018-06-16T03:38:02.980Z,94.10
2018-06-16T03:41:00.950Z,94.20
2018-06-16T03:43:58.972Z,94.40
2018-06-16T03:46:57.094Z,94.30
2018-06-16T03:49:55.001Z,94.10
2018-06-16T03:52:53.059Z,93.50
2018-06-16T03:55:51.234Z,93.70
2018-06-16T03:58:49.165Z,93.90
2018-06-16T04:01:47.293Z,93.80
2018-06-16T04:04:45.235Z,93.30
2018-06-16T04:07:42.526Z,92.60
2018-06-16T04:10:40.619Z,92.00
2018-06-16T04:13:37.779Z,91.90
2018-06-16T04:16:34.862Z,91.10
2018-06-16T04:19:32.147Z,91.00
2018-06-16T04:22:29.437Z,91.00
2018-06-16T04:25:26.839Z,90.90
2018-06-16T04:28:24.858Z,90.70
2018-06-16T04:31:22.125Z,90.50
2018-06-16T04:34:20.285Z,90.50
2018-06-16T04:37:18.255Z,90.50
2018-06-16T04:40:16.320Z,90.70
2018-06-16T04:43:14.367Z,90.60
2018-06-16T04:46:12.562Z,90.40
2018-06-16T04:49:09.684Z,90.10
2018-06-16T04:52:07.500Z,90.20
2018-06-16T04:55:05.755Z,90.20
2018-06-16T04:58:03.589Z,90.20
2018-06-16T05:01:01.647Z,90.20
2018-06-16T05:03:58.795Z,90.20
2018-06-16T05:06:55.969Z,90.00
2018-06-16T05:09:53.955Z,89.60
2018-06-16T05:12:51.234Z,88.80
2018-06-16T05:15:48.576Z,88.50
2018-06-16T05:18:47.527Z,87.40
2018-06-16T05:21:45.551Z,87.50
2018-06-16T05:24:44.670Z,88.10
2018-06-16T05:27:43.731Z,88.60
2018-06-16T05:30:41.649Z,88.50
2018-06-16T05:33:38.847Z,89.80
2018-06-16T05:36:36.629Z,90.10
2018-06-16T05:39:33.875Z,90.00
2018-06-16T05:42:31.984Z,89.20
2018-06-16T05:45:29.873Z,88.50
2018-06-16T05:48:27.233Z,87.90
2018-06-16T05:51:24.528Z,87.30
2018-06-16T05:54:21.923Z,84.70
2018-06-16T05:57:19.132Z,83.00
2018-06-16T06:00:16.308Z,83.40
2018-06-16T06:03:13.789Z,84.20
2018-06-16T06:06:12.591Z,83.50
2018-06-16T06:09:09.839Z,82.60
2018-06-16T06:12:08.172Z,83.40
2018-06-16T06:15:06.243Z,82.70
2018-06-16T06:18:03.500Z,82.30
2018-06-16T06:21:01.405Z,80.60
2018-06-16T06:23:59.342Z,77.80
2018-06-16T06:26:57.393Z,76.20
2018-06-16T06:29:55.371Z,75.50
2018-06-16T06:32:52.626Z,75.70
2018-06-16T06:35:49.922Z,74.50
2018-06-16T06:38:47.620Z,75.10
2018-06-16T06:41:45.583Z,76.50
2018-06-16T06:44:44.401Z,76.00
2018-06-16T06:47:42.824Z,74.80
2018-06-16T06:50:40.753Z,74.50
2018-06-16T06:53:38.855Z,75.20
2018-06-16T06:56:36.111Z,74.10
2018-06-16T06:59:33.288Z,72.80
2018-06-16T07:02:30.590Z,69.40
2018-06-16T07:05:27.711Z,65.40
2018-06-16T07:08:25.689Z,61.40
2018-06-16T07:11:23.692Z,58.50
2018-06-16T07:14:21.992Z,57.70
2018-06-16T07:17:20.189Z,56.40
2018-06-16T07:20:18.214Z,54.50
2018-06-16T07:23:15.496Z,53.40
2018-06-16T07:26:13.341Z,50.10
2018-06-16T07:29:11.437Z,49.20
2018-06-16T07:32:09.360Z,48.20
2018-06-16T07:35:07.174Z,47.70
2018-06-16T07:38:04.436Z,46.40
2018-06-16T07:41:02.659Z,45.90
2018-06-16T07:43:59.891Z,44.80
2018-06-16T07:46:57.968Z,44.80
2018-06-16T07:53:24.263Z,43.00
2018-06-16T07:56:25.257Z,42.50
2018-06-16T07:59:23.392Z,42.70
2018-06-16T08:02:20.950Z,41.80
2018-06-16T08:05:18.967Z,43.10
2018-06-16T08:08:16.199Z,42.70
2018-06-16T08:11:13.438Z,42.90
2018-06-16T08:14:11.633Z,43.40
2018-06-16T08:17:09.704Z,44.50
2018-06-16T08:20:07.788Z,44.10
2018-06-16T08:23:06.068Z,41.70
2018-06-16T08:26:03.982Z,39.50
2018-06-16T08:29:01.416Z,37.40
2018-06-16T08:31:59.286Z,35.00
2018-06-16T08:34:57.065Z,36.80
2018-06-16T08:37:55.193Z,38.40
2018-06-16T08:40:53.294Z,38.00
2018-06-16T08:43:51.321Z,37.40
2018-06-16T08:46:48.575Z,36.40
2018-06-16T08:49:46.611Z,36.30
2018-06-16T08:52:44.376Z,35.30
2018-06-16T08:55:42.226Z,35.20
2018-06-16T08:58:41.179Z,36.60
2018-06-16T09:01:39.271Z,35.70
2018-06-16T09:04:36.735Z,36.60
2018-06-16T09:07:34.913Z,36.20
2018-06-16T09:10:35.793Z,36.40
2018-06-16T09:13:34.929Z,35.50
2018-06-16T09:16:32.883Z,36.40
2018-06-16T09:19:30.906Z,37.00
2018-06-16T09:22:29.565Z,36.80
2018-06-16T09:25:27.857Z,36.90
2018-06-16T09:28:25.870Z,37.30
2018-06-16T09:31:24.072Z,36.60
2018-06-16T09:34:24.958Z,35.60
2018-06-16T09:37:23.125Z,35.00
2018-06-16T09:40:20.839Z,34.80
2018-06-16T09:43:18.901Z,34.60
2018-06-16T09:46:16.695Z,34.20
2018-06-16T09:49:14.614Z,34.10
2018-06-16T09:52:13.749Z,32.90
2018-06-16T09:55:12.066Z,32.60
2018-06-16T09:58:09.803Z,33.90
2018-06-16T10:01:07.851Z,34.10
2018-06-16T10:04:07.088Z,34.00
2018-06-16T10:07:06.097Z,33.50
2018-06-16T10:10:04.203Z,33.70
2018-06-16T10:13:01.460Z,34.70
2018-06-16T10:15:59.470Z,34.50
2018-06-16T10:18:57.433Z,35.40
2018-06-16T10:21:57.452Z,35.10
2018-06-16T10:24:54.750Z,35.10
2018-06-16T10:27:53.829Z,34.20
2018-06-16T10:30:51.890Z,35.20
2018-06-16T10:33:49.725Z,35.20
2018-06-16T10:36:51.167Z,35.00
2018-06-16T10:39:50.117Z,34.70
2018-06-16T10:42:48.584Z,33.80
2018-06-16T10:45:45.986Z,33.10
2018-06-16T10:48:44.249Z,32.20
2018-06-16T10:51:44.238Z,31.90
2018-06-16T10:54:41.882Z,32.60
2018-06-16T10:57:40.839Z,32.50
2018-06-16T11:00:41.351Z,32.50
2018-06-16T11:03:38.946Z,33.10
2018-06-16T11:06:37.016Z,33.70
2018-06-16T11:09:34.087Z,33.20
2018-06-16T11:12:31.908Z,32.50
2018-06-16T11:15:30.359Z,33.90
2018-06-16T11:18:28.046Z,33.80
2018-06-16T11:21:26.925Z,33.40
2018-06-16T11:24:24.836Z,32.60
2018-06-16T11:27:23.619Z,33.80
2018-06-16T11:30:22.644Z,34.60
2018-06-16T11:33:19.829Z,35.10
2018-06-16T11:36:18.817Z,35.30
2018-06-16T11:39:18.130Z,36.30
2018-06-16T11:42:16.129Z,36.70
2018-06-16T11:45:14.022Z,36.80
2018-06-16T11:48:11.904Z,36.50
2018-06-16T11:51:11.028Z,36.70
2018-06-16T11:54:08.491Z,35.70
2018-06-16T11:57:06.575Z,36.10
2018-06-16T12:00:04.384Z,37.00
2018-06-16T12:03:02.418Z,37.20
2018-06-16T12:06:01.252Z,36.70
2018-06-16T12:09:00.026Z,36.10
2018-06-16T12:11:58.145Z,34.80
2018-06-16T12:14:56.178Z,34.20
2018-06-16T12:17:54.204Z,33.80
2018-06-16T12:20:53.939Z,34.00
2018-06-16T12:23:51.959Z,33.50
2018-06-16T12:26:49.969Z,33.70
2018-06-16T12:29:49.271Z,33.50
2018-06-16T12:32:47.120Z,33.70
2018-06-16T12:35:44.538Z,33.80
2018-06-16T12:38:43.115Z,34.80
2018-06-16T12:41:41.183Z,35.10
2018-06-16T12:44:39.184Z,35.90
2018-06-16T12:47:37.395Z,37.00
2018-06-16T12:50:35.135Z,37.40
2018-06-16T12:53:32.973Z,37.00
2018-06-16T12:56:31.949Z,36.50
2018-06-16T12:59:31.228Z,36.50
2018-06-16T13:02:29.181Z,36.90
2018-06-16T13:05:27.391Z,37.10
2018-06-16T13:08:26.306Z,37.50
2018-06-16T13:11:24.338Z,37.90
2018-06-16T13:14:22.388Z,38.40
2018-06-16T13:17:20.541Z,39.30
2018-06-16T13:20:18.150Z,39.40
2018-06-16T13:23:16.024Z,39.80
2018-06-16T13:26:15.273Z,39.50
2018-06-16T13:29:12.496Z,39.80
2018-06-16T13:32:10.494Z,40.40
2018-06-16T13:35:08.340Z,40.20
2018-06-16T13:38:06.237Z,40.30
2018-06-16T13:41:04.220Z,37.50
2018-06-16T13:44:02.049Z,38.90
2018-06-16T13:46:59.367Z,39.10
2018-06-16T13:49:57.689Z,40.10
2018-06-16T13:52:54.841Z,40.70
2018-06-16T13:55:53.081Z,41.50
2018-06-16T13:58:51.255Z,41.70
2018-06-16T14:04:39.352Z,40.00
2018-06-16T14:07:38.647Z,39.70
2018-06-16T14:10:36.833Z,39.60
2018-06-16T14:13:34.944Z,39.10
2018-06-16T14:16:32.851Z,39.10
2018-06-16T14:19:30.748Z,39.60
2018-06-16T14:22:28.703Z,40.20
2018-06-16T14:25:26.809Z,41.20
2018-06-16T14:28:25.921Z,43.60
2018-06-16T14:31:23.942Z,43.50
2018-06-16T14:34:21.868Z,44.10
2018-06-16T14:37:20.069Z,44.50
2018-06-16T14:40:18.015Z,44.90
2018-06-16T14:43:15.738Z,44.70
2018-06-16T14:46:13.200Z,45.60
2018-06-16T14:49:11.098Z,47.10
2018-06-16T14:52:09.143Z,47.20
2018-06-16T14:55:07.160Z,47.00
2018-06-16T14:58:05.091Z,47.50
2018-06-16T15:01:03.535Z,48.10
2018-06-16T15:04:00.775Z,47.70
2018-06-16T15:07:00.263Z,47.00
2018-06-16T15:09:58.288Z,47.10
2018-06-16T15:12:56.401Z,47.70
2018-06-16T15:15:54.248Z,48.40
2018-06-16T15:18:51.652Z,48.30
2018-06-16T15:21:48.924Z,48.10
2018-06-16T15:24:46.880Z,49.60
2018-06-16T15:27:44.913Z,49.50
2018-06-16T15:30:42.256Z,50.00
2018-06-16T15:33:40.771Z,49.60
2018-06-16T15:36:38.483Z,49.60
2018-06-16T15:39:35.805Z,50.00
2018-06-16T15:42:33.920Z,51.20
2018-06-16T15:45:31.856Z,51.10
2018-06-16T15:48:29.942Z,51.10
2018-06-16T15:51:28.183Z,51.10
2018-06-16T15:54:25.317Z,51.80
2018-06-16T15:57:23.358Z,52.60
2018-06-16T16:00:21.390Z,52.80
2018-06-16T16:03:18.735Z,53.00
2018-06-16T16:06:15.932Z,53.30
2018-06-16T16:09:13.726Z,53.10
2018-06-16T16:12:12.762Z,53.20
2018-06-16T16:15:11.550Z,53.80
2018-06-16T16:18:09.067Z,53.60
2018-06-16T16:21:06.323Z,53.60
2018-06-16T16:24:04.665Z,53.90
2018-06-16T16:27:02.810Z,54.50
2018-06-16T16:30:00.935Z,54.20
2018-06-16T16:32:59.341Z,54.50
2018-06-16T16:35:56.550Z,54.90
2018-06-16T16:41:44.471Z,54.90
2018-06-16T16:44:42.253Z,54.90
2018-06-16T16:47:40.230Z,55.60
2018-06-16T16:50:38.390Z,55.40
2018-06-16T16:53:36.561Z,55.00
2018-06-16T16:56:34.593Z,54.50
2018-06-16T16:59:31.762Z,53.70
2018-06-16T17:02:29.025Z,53.60
2018-06-16T17:05:27.241Z,54.10
2018-06-16T17:08:25.542Z,54.70
2018-06-16T17:11:23.689Z,54.80
2018-06-16T17:14:21.070Z,55.00
2018-06-16T17:17:19.188Z,54.80
2018-06-16T17:20:16.990Z,55.30
2018-06-16T17:23:14.141Z,55.60
2018-06-16T17:26:11.359Z,55.90
2018-06-16T17:29:09.430Z,56.30
2018-06-16T17:32:06.630Z,56.40
2018-06-16T17:35:04.017Z,56.70
2018-06-16T17:38:01.917Z,57.00
2018-06-16T17:40:59.956Z,57.00
2018-06-16T17:43:57.944Z,56.80
2018-06-16T17:46:56.987Z,57.40
2018-06-16T17:49:55.174Z,57.10
2018-06-16T17:52:53.122Z,57.40
2018-06-16T17:55:50.517Z,57.50
2018-06-16T17:58:48.435Z,57.50
2018-06-16T18:01:46.399Z,57.70
2018-06-16T18:04:44.409Z,58.10
2018-06-16T18:07:44.262Z,58.30
2018-06-16T18:10:42.405Z,58.40
2018-06-16T18:13:40.274Z,58.00
2018-06-16T18:16:38.975Z,58.40
2018-06-16T18:19:36.475Z,58.70
2018-06-16T18:22:34.344Z,58.30
2018-06-16T18:25:33.419Z,58.00
2018-06-16T18:28:31.234Z,58.10
2018-06-16T18:31:28.494Z,58.30
2018-06-16T18:34:26.454Z,58.50
2018-06-16T18:37:23.753Z,58.70
2018-06-16T18:40:21.366Z,58.70
2018-06-16T18:43:18.710Z,58.30
2018-06-16T18:46:16.827Z,58.50
2018-06-16T18:49:14.245Z,58.60
2018-06-16T18:52:12.210Z,58.80
2018-06-16T18:55:11.013Z,59.40
2018-06-16T18:58:09.075Z,59.60
2018-06-16T19:01:09.397Z,59.70
2018-06-16T19:04:07.437Z,59.80
2018-06-16T19:07:05.580Z,59.80
2018-06-16T19:10:03.582Z,59.90
2018-06-16T19:13:01.715Z,60.20
2018-06-16T19:16:01.479Z,60.20
2018-06-16T19:19:00.432Z,60.80
2018-06-16T19:21:58.137Z,61.40
2018-06-16T19:24:56.199Z,60.90
2018-06-16T19:27:54.152Z,61.30
2018-06-16T19:30:51.992Z,61.90
2018-06-16T19:33:50.124Z,62.30
2018-06-16T19:36:48.129Z,63.10
2018-06-16T19:39:46.483Z,63.30
2018-06-16T19:42:43.563Z,63.70
2018-06-16T19:45:41.610Z,63.80
2018-06-16T19:48:39.717Z,64.10
2018-06-16T19:51:37.477Z,64.30
2018-06-16T19:54:35.715Z,64.80
2018-06-16T19:57:33.035Z,64.80
2018-06-16T20:00:30.628Z,65.10
2018-06-16T20:03:28.497Z,65.40
2018-06-16T20:06:26.589Z,66.00
2018-06-16T20:09:23.892Z,66.50
2018-06-16T20:12:21.965Z,67.00
2018-06-16T20:15:19.994Z,67.20
2018-06-16T20:18:18.126Z,67.50
2018-06-16T20:21:16.987Z,67.60
2018-06-16T20:24:15.006Z,68.00
2018-06-16T20:27:14.849Z,68.30
2018-06-16T20:30:12.854Z,68.70
2018-06-16T20:33:10.841Z,68.70
2018-06-16T20:36:08.010Z,68.60
2018-06-16T20:39:06.111Z,68.60
2018-06-16T20:42:04.101Z,69.00
2018-06-16T20:45:04.057Z,69.10
2018-06-16T20:48:10.120Z,69.70
2018-06-16T20:51:07.311Z,70.10
2018-06-16T20:54:05.562Z,71.20
2018-06-16T20:57:02.748Z,70.70
2018-06-16T21:00:01.517Z,69.50
2018-06-16T21:02:58.942Z,71.20
2018-06-16T21:05:57.747Z,70.40
2018-06-16T21:08:55.716Z,69.20
2018-06-16T21:11:53.620Z,69.40
2018-06-16T21:14:51.672Z,68.20
2018-06-16T21:17:50.457Z,69.40
2018-06-16T21:20:47.611Z,69.30
2018-06-16T21:23:45.601Z,70.50
2018-06-16T21:26:45.847Z,69.40
2018-06-16T21:29:43.941Z,69.70
2018-06-16T21:32:41.814Z,69.60
2018-06-16T21:35:38.922Z,69.80
2018-06-16T21:38:37.005Z,70.40
2018-06-16T21:41:34.918Z,71.10
2018-06-16T21:44:32.866Z,72.40
2018-06-16T21:47:30.881Z,74.50
2018-06-16T21:50:29.001Z,75.40
2018-06-16T21:53:26.954Z,76.00
2018-06-16T21:56:25.137Z,76.60
2018-06-16T21:59:23.310Z,78.10
2018-06-16T22:02:21.260Z,79.00
2018-06-16T22:05:19.180Z,79.20
2018-06-16T22:08:23.039Z,77.90
2018-06-16T22:11:21.827Z,77.30
2018-06-16T22:14:19.741Z,77.70
2018-06-16T22:17:17.475Z,78.20
2018-06-16T22:20:15.367Z,78.50
2018-06-16T22:23:13.431Z,79.00
2018-06-16T22:26:11.226Z,79.60
2018-06-16T22:29:10.372Z,79.60
2018-06-16T22:32:09.503Z,80.60
2018-06-16T22:35:07.372Z,81.30
2018-06-16T22:38:04.507Z,82.40
2018-06-16T22:41:02.601Z,83.00
2018-06-16T22:44:00.308Z,83.70
2018-06-16T22:46:57.681Z,84.30
2018-06-16T22:49:55.539Z,85.50
2018-06-16T22:52:53.851Z,86.50
2018-06-16T22:55:51.784Z,86.50
2018-06-16T22:58:49.969Z,87.00
2018-06-16T23:01:47.212Z,88.00
2018-06-16T23:04:45.028Z,88.70
2018-06-16T23:07:43.197Z,87.90
2018-06-16T23:10:41.361Z,86.90
2018-06-16T23:13:39.528Z,87.10
2018-06-16T23:16:36.775Z,86.70
2018-06-16T23:19:34.863Z,86.90
2018-06-16T23:22:32.799Z,87.40
2018-06-16T23:25:30.204Z,87.90
2018-06-16T23:28:28.062Z,88.10
2018-06-16T23:31:25.378Z,88.40
2018-06-16T23:34:23.218Z,88.50
2018-06-16T23:37:23.373Z,88.90
2018-06-16T23:40:21.209Z,88.90
2018-06-16T23:43:18.676Z,90.00
2018-06-16T23:46:16.577Z,90.50
2018-06-16T23:49:14.515Z,90.90
2018-06-16T23:52:12.541Z,91.10
2018-06-16T23:55:10.729Z,91.80
2018-06-16T23:58:08.619Z,92.10
